METAR UND TAF INFORMATION
VABB 180730Z 26008KT 2500 FU NSC 32/14 Q1013 NOSIG

 FLUGHAFENKARTE

 RUNWAY INFORMATION
Runway 09 Runway length 11302 ft Runway width 148 ft
Runway elevation 15 ft Runway displaced threshold 465 ft Runway heading 89
Runway 27 Runway length 11302 ft Runway width 148 ft
Runway elevation 22 ft Runway displaced threshold 1581 ft Runway heading 269
Runway 14 Runway length 9596 ft Runway width 150 ft
Runway elevation 37 ft Runway displaced threshold 1238 ft Runway heading 134
Runway 32 Runway length 9596 ft Runway width 150 ft
Runway elevation 26 ft Runway displaced threshold 853 ft Runway heading 314

 AIRPORT FREQUENCIES
Type ACC Name MUMBAI Frequency 120.5 MHZ
Type APP Name MUMBAI APP Frequency 127.9 MHZ
Type ATIS Name MUMBAI ATI Frequency 126.4 MHZ
Type CLD Name MUMBAI CLR Frequency 121.85 MHZ
Type GND Name MUMBAI GND Frequency 121.9 MHZ
Type RDO Name MUMBAI RDO Frequency 1008.4 MHZ
Type RDR Name RDR Frequency 119.3 MHZ
Type TWR Name MUMBAI TWR Frequency 118.1 MHZ

 AIRPORT NEAR NAVIGATION AIDS
Type VOR-DME Name Mumbai Frequency 116600 KHZ



Version 5.0.0: Changelog

Impressum | Datenschutzerklärung

Virtual Airlines Manager